createdAt,value
2018-01-03T00:00:17.961Z,8.01
2018-01-03T00:02:47.458Z,7.97
2018-01-03T00:05:16.623Z,7.81
2018-01-03T00:07:45.858Z,7.91
2018-01-03T00:10:16.375Z,8.01
2018-01-03T00:12:45.888Z,8.02
2018-01-03T00:15:14.993Z,7.95
2018-01-03T00:17:44.111Z,7.92
2018-01-03T00:20:16.001Z,7.96
2018-01-03T00:22:45.094Z,7.95
2018-01-03T00:25:14.178Z,8.04
2018-01-03T00:27:43.540Z,8.07
2018-01-03T00:30:14.801Z,8.05
2018-01-03T00:32:43.909Z,8.00
2018-01-03T00:35:13.029Z,8.15
2018-01-03T00:37:42.423Z,8.08
2018-01-03T00:40:11.616Z,7.88
2018-01-03T00:42:40.802Z,8.04
2018-01-03T00:45:10.339Z,8.05
2018-01-03T00:47:39.458Z,8.14
2018-01-03T00:50:09.636Z,7.97
2018-01-03T00:52:38.851Z,8.00
2018-01-03T00:55:08.261Z,8.06
2018-01-03T00:57:38.254Z,8.09
2018-01-03T01:00:11.095Z,7.98
2018-01-03T01:02:40.240Z,8.03
2018-01-03T01:05:09.682Z,8.02
2018-01-03T01:07:38.814Z,8.16
2018-01-03T01:10:08.069Z,8.11
2018-01-03T01:12:37.261Z,8.04
2018-01-03T01:15:06.787Z,8.20
2018-01-03T01:17:35.906Z,8.26
2018-01-03T01:20:08.919Z,8.27
2018-01-03T01:22:38.371Z,8.27
2018-01-03T01:25:07.497Z,8.10
2018-01-03T01:27:36.621Z,8.07
2018-01-03T01:30:09.352Z,8.00
2018-01-03T01:32:38.585Z,8.06
2018-01-03T01:35:07.835Z,8.19
2018-01-03T01:37:37.329Z,8.06
2018-01-03T01:40:08.435Z,8.08
2018-01-03T01:42:38.668Z,8.14
2018-01-03T01:45:07.829Z,8.14
2018-01-03T01:47:37.149Z,8.32
2018-01-03T01:50:08.831Z,8.25
2018-01-03T01:52:38.958Z,8.32
2018-01-03T01:55:08.078Z,8.21
2018-01-03T01:57:37.217Z,8.11
2018-01-03T02:00:08.235Z,8.12
2018-01-03T02:02:37.385Z,8.20
2018-01-03T02:05:06.538Z,8.29
2018-01-03T02:07:51.627Z,8.29
2018-01-03T02:10:25.156Z,8.22
2018-01-03T02:12:54.494Z,8.26
2018-01-03T02:15:23.889Z,8.28
2018-01-03T02:17:52.983Z,8.41
2018-01-03T02:20:22.326Z,8.52
2018-01-03T02:22:51.705Z,8.51
2018-01-03T02:25:20.917Z,8.53
2018-01-03T02:27:50.067Z,8.48
2018-01-03T02:31:22.054Z,8.37
2018-01-03T02:33:51.157Z,8.45
2018-01-03T02:36:20.662Z,8.46
2018-01-03T02:38:49.782Z,8.52
2018-01-03T02:41:18.888Z,8.62
2018-01-03T02:43:48.039Z,8.64
2018-01-03T02:46:20.581Z,8.78
2018-01-03T02:48:49.679Z,8.72
2018-01-03T02:51:18.790Z,8.74
2018-01-03T02:53:47.989Z,8.73
2018-01-03T02:56:19.290Z,8.82
2018-01-03T02:58:48.403Z,8.93
2018-01-03T03:01:17.689Z,8.88
2018-01-03T03:03:46.923Z,8.89
2018-01-03T03:06:17.753Z,8.94
2018-01-03T03:08:46.915Z,9.02
2018-01-03T03:11:16.030Z,9.00
2018-01-03T03:13:45.162Z,9.07
2018-01-03T03:16:17.554Z,9.05
2018-01-03T03:18:46.654Z,9.04
2018-01-03T03:21:16.128Z,9.05
2018-01-03T03:23:45.208Z,9.07
2018-01-03T03:26:16.188Z,9.12
2018-01-03T03:28:45.774Z,9.15
2018-01-03T03:31:15.155Z,9.16
2018-01-03T03:33:44.238Z,9.23
2018-01-03T03:36:16.351Z,9.25
2018-01-03T03:38:46.363Z,9.32
2018-01-03T03:41:15.732Z,9.32
2018-01-03T03:43:44.806Z,9.35
2018-01-03T03:46:15.424Z,9.38
2018-01-03T03:48:44.485Z,9.39
2018-01-03T03:51:13.881Z,9.28
2018-01-03T03:53:43.275Z,9.40
2018-01-03T03:56:14.415Z,9.38
2018-01-03T03:58:43.485Z,9.34
2018-01-03T04:01:12.938Z,9.36
2018-01-03T04:03:42.000Z,9.42
2018-01-03T04:06:15.201Z,9.47
2018-01-03T04:08:44.546Z,9.51
2018-01-03T04:11:13.618Z,9.51
2018-01-03T04:13:42.730Z,9.54
2018-01-03T04:16:13.255Z,9.58
2018-01-03T04:18:42.412Z,9.57
2018-01-03T04:21:11.546Z,9.55
2018-01-03T04:23:40.916Z,9.56
2018-01-03T04:26:11.173Z,9.60
2018-01-03T04:28:40.583Z,9.66
2018-01-03T04:31:09.951Z,9.78
2018-01-03T04:33:39.010Z,9.83
2018-01-03T04:36:09.608Z,9.83
2018-01-03T04:38:38.674Z,9.87
2018-01-03T04:41:07.754Z,9.92
2018-01-03T04:43:36.821Z,9.90
2018-01-03T04:46:08.226Z,9.98
2018-01-03T04:48:37.609Z,9.98
2018-01-03T04:51:06.671Z,9.99
2018-01-03T04:53:35.717Z,9.95
2018-01-03T04:56:07.959Z,9.95
2018-01-03T05:01:08.835Z,10.13
2018-01-03T05:03:38.406Z,10.11
2018-01-03T05:06:08.299Z,10.22
2018-01-03T05:08:37.378Z,10.24
2018-01-03T05:11:06.450Z,10.32
2018-01-03T05:13:35.533Z,10.37
2018-01-03T05:16:07.978Z,10.42
2018-01-03T05:18:37.343Z,10.43
2018-01-03T05:21:06.491Z,10.47
2018-01-03T05:23:35.958Z,10.53
2018-01-03T05:26:07.726Z,10.56
2018-01-03T05:28:37.142Z,10.64
2018-01-03T05:31:06.206Z,10.70
2018-01-03T05:33:35.262Z,10.79
2018-01-03T05:36:07.040Z,10.82
2018-01-03T05:38:36.088Z,10.90
2018-01-03T05:41:05.351Z,10.95
2018-01-03T05:43:34.938Z,11.02
2018-01-03T05:46:08.019Z,11.07
2018-01-03T05:48:37.112Z,11.16
2018-01-03T05:51:06.195Z,11.18
2018-01-03T05:53:35.307Z,11.17
2018-01-03T05:56:06.440Z,11.19
2018-01-03T05:58:35.531Z,11.05
2018-01-03T06:01:04.875Z,10.98
2018-01-03T06:03:34.470Z,10.94
2018-01-03T06:06:06.455Z,10.96
2018-01-03T06:10:58.698Z,10.95
2018-01-03T06:13:28.458Z,10.94
2018-01-03T06:15:57.544Z,10.93
2018-01-03T06:18:26.633Z,10.92
2018-01-03T06:20:56.366Z,10.95
2018-01-03T06:23:25.814Z,10.96
2018-01-03T06:25:55.375Z,10.97
2018-01-03T06:28:24.522Z,11.03
2018-01-03T06:30:53.909Z,11.14
2018-01-03T06:33:23.764Z,11.16
2018-01-03T06:35:52.868Z,10.38
2018-01-03T06:38:22.647Z,9.49
2018-01-03T06:40:51.751Z,9.39
2018-01-03T06:43:20.942Z,9.21
2018-01-03T06:45:50.114Z,9.19
2018-01-03T06:48:20.985Z,9.19
2018-01-03T06:50:50.074Z,9.20
2018-01-03T06:53:19.342Z,9.19
2018-01-03T06:55:49.866Z,9.15
2018-01-03T06:58:19.309Z,9.17
2018-01-03T07:00:48.403Z,9.20
2018-01-03T07:03:17.778Z,9.19
2018-01-03T07:09:18.534Z,9.23
2018-01-03T07:11:47.611Z,9.22
2018-01-03T07:14:19.030Z,9.22
2018-01-03T07:16:48.121Z,9.22
2018-01-03T07:19:17.183Z,9.25
2018-01-03T07:21:47.276Z,9.26
2018-01-03T07:24:16.465Z,9.25
2018-01-03T07:26:45.880Z,9.27
2018-01-03T07:29:14.965Z,9.32
2018-01-03T07:31:44.042Z,9.26
2018-01-03T07:34:13.340Z,9.29
2018-01-03T07:36:42.721Z,9.27
2018-01-03T07:39:11.847Z,9.26
2018-01-03T07:41:40.958Z,9.27
2018-01-03T07:44:12.106Z,9.25
2018-01-03T07:46:41.191Z,9.24
2018-01-03T07:49:10.304Z,9.28
2018-01-03T07:51:39.378Z,9.29
2018-01-03T07:56:48.530Z,9.37
2018-01-03T07:59:17.639Z,9.48
2018-01-03T08:01:47.069Z,9.65
2018-01-03T08:04:16.240Z,9.59
2018-01-03T08:06:45.346Z,9.65
2018-01-03T08:09:14.721Z,9.66
2018-01-03T08:11:44.491Z,9.66
2018-01-03T08:14:14.251Z,9.66
2018-01-03T08:16:43.702Z,9.67
2018-01-03T08:19:12.838Z,9.74
2018-01-03T08:21:41.920Z,9.75
2018-01-03T08:24:14.832Z,9.77
2018-01-03T08:26:44.273Z,9.73
2018-01-03T08:29:13.367Z,9.78
2018-01-03T08:31:42.531Z,9.78
2018-01-03T08:34:12.547Z,9.81
2018-01-03T08:36:41.991Z,9.85
2018-01-03T08:39:11.095Z,9.95
2018-01-03T08:41:40.230Z,9.92
2018-01-03T08:44:10.324Z,9.88
2018-01-03T08:46:39.722Z,9.87
2018-01-03T08:49:08.836Z,10.04
2018-01-03T08:51:38.060Z,10.19
2018-01-03T08:54:14.811Z,10.28
2018-01-03T08:56:43.971Z,10.29
2018-01-03T08:59:13.208Z,10.43
2018-01-03T09:01:43.015Z,10.47
2018-01-03T09:04:17.863Z,10.57
2018-01-03T09:06:47.025Z,10.55
2018-01-03T09:09:16.160Z,10.46
2018-01-03T09:11:45.637Z,10.40
2018-01-03T09:14:15.265Z,10.34
2018-01-03T09:16:44.590Z,10.23
2018-01-03T09:19:13.703Z,10.08
2018-01-03T09:21:42.967Z,10.10
2018-01-03T09:24:15.452Z,10.06
2018-01-03T09:26:45.408Z,9.98
2018-01-03T09:29:14.811Z,9.96
2018-01-03T09:31:43.905Z,9.93
2018-01-03T09:34:13.905Z,9.94
2018-01-03T09:36:43.498Z,9.91
2018-01-03T09:39:12.594Z,9.88
2018-01-03T09:41:42.058Z,9.91
2018-01-03T09:44:13.082Z,9.91
2018-01-03T09:46:42.424Z,9.92
2018-01-03T09:49:11.597Z,9.96
2018-01-03T09:51:40.689Z,10.01
2018-01-03T09:54:10.301Z,10.07
2018-01-03T09:56:40.360Z,10.02
2018-01-03T09:59:09.541Z,10.04
2018-01-03T10:01:39.032Z,9.98
2018-01-03T10:04:08.741Z,10.01
2018-01-03T10:06:37.922Z,10.00
2018-01-03T10:09:07.128Z,10.05
2018-01-03T10:11:37.479Z,10.11
2018-01-03T10:14:07.667Z,10.23
2018-01-03T10:16:38.114Z,10.23
2018-01-03T10:19:07.611Z,10.30
2018-01-03T10:21:37.787Z,10.23
2018-01-03T10:24:08.472Z,10.28
2018-01-03T10:26:37.980Z,10.43
2018-01-03T10:29:07.130Z,11.49
2018-01-03T10:31:36.290Z,11.95
2018-01-03T10:34:09.758Z,11.58
2018-01-03T10:36:38.868Z,11.10
2018-01-03T10:39:07.970Z,10.72
2018-01-03T10:41:37.440Z,10.66
2018-01-03T10:44:08.314Z,10.61
2018-01-03T10:46:37.482Z,10.74
2018-01-03T10:49:06.917Z,12.49
2018-01-03T10:51:36.062Z,15.69
2018-01-03T10:54:07.160Z,18.79
2018-01-03T10:56:36.275Z,19.75
2018-01-03T10:59:05.668Z,19.07
2018-01-03T11:01:34.948Z,18.95
2018-01-03T11:04:05.395Z,18.87
2018-01-03T11:06:34.499Z,20.08
2018-01-03T11:09:04.260Z,20.15
2018-01-03T11:11:33.522Z,20.07
2018-01-03T11:14:05.668Z,21.10
2018-01-03T11:16:35.104Z,20.80
2018-01-03T11:19:04.422Z,20.56
2018-01-03T11:21:33.533Z,20.40
2018-01-03T11:24:05.619Z,21.02
2018-01-03T11:26:35.041Z,20.76
2018-01-03T11:29:04.471Z,20.22
2018-01-03T11:31:34.820Z,19.32
2018-01-03T11:34:04.894Z,19.46
2018-01-03T11:36:34.928Z,18.65
2018-01-03T11:39:05.232Z,18.49
2018-01-03T11:41:35.155Z,18.23
2018-01-03T11:44:05.482Z,18.83
2018-01-03T11:46:35.020Z,19.17
2018-01-03T11:49:04.548Z,17.72
2018-01-03T11:51:33.645Z,17.32
2018-01-03T11:54:04.985Z,19.02
2018-01-03T11:56:34.067Z,18.28
2018-01-03T11:59:07.157Z,17.10
2018-01-03T12:01:36.570Z,16.06
2018-01-03T12:04:06.707Z,14.58
2018-01-03T12:06:37.399Z,14.15
2018-01-03T12:09:06.843Z,13.93
2018-01-03T12:11:35.953Z,13.23
2018-01-03T12:14:09.035Z,13.01
2018-01-03T12:16:38.132Z,13.08
2018-01-03T12:19:07.223Z,13.13
2018-01-03T12:21:36.640Z,13.04
2018-01-03T12:24:08.050Z,13.12
2018-01-03T12:26:37.149Z,13.24
2018-01-03T12:29:06.541Z,13.23
2018-01-03T12:31:36.576Z,13.24
2018-01-03T12:34:08.907Z,13.18
2018-01-03T12:36:38.023Z,13.30
2018-01-03T12:39:07.974Z,13.34
2018-01-03T12:41:38.495Z,13.23
2018-01-03T12:44:10.737Z,13.34
2018-01-03T12:46:40.136Z,13.03
2018-01-03T12:49:09.530Z,12.76
2018-01-03T12:51:38.634Z,12.75
2018-01-03T12:54:12.371Z,12.76
2018-01-03T12:56:41.471Z,12.71
2018-01-03T12:59:11.031Z,12.60
2018-01-03T13:01:40.141Z,12.62
2018-01-03T13:04:10.438Z,12.58
2018-01-03T13:06:39.555Z,12.62
2018-01-03T13:09:08.666Z,12.63
2018-01-03T13:11:37.774Z,12.37
2018-01-03T13:14:08.605Z,12.06
2018-01-03T13:16:38.018Z,11.80
2018-01-03T13:19:07.211Z,12.12
2018-01-03T13:21:37.743Z,12.14
2018-01-03T13:24:08.772Z,12.04
2018-01-03T13:26:39.003Z,12.04
2018-01-03T13:29:08.126Z,12.12
2018-01-03T13:31:37.349Z,12.11
2018-01-03T13:34:07.004Z,12.04
2018-01-03T13:36:36.149Z,12.10
2018-01-03T13:39:06.015Z,12.10
2018-01-03T13:41:35.166Z,12.10
2018-01-03T13:44:06.107Z,12.45
2018-01-03T13:46:35.230Z,12.22
2018-01-03T13:49:04.760Z,12.18
2018-01-03T13:51:34.059Z,11.96
2018-01-03T13:54:05.699Z,11.81
2018-01-03T13:56:34.809Z,11.51
2018-01-03T13:59:04.587Z,11.34
2018-01-03T14:01:33.706Z,11.28
2018-01-03T14:04:05.529Z,11.33
2018-01-03T14:06:34.655Z,11.12
2018-01-03T14:09:04.381Z,11.06
2018-01-03T14:11:33.495Z,11.02
2018-01-03T14:14:04.494Z,10.98
2018-01-03T14:16:34.218Z,10.94
2018-01-03T14:19:04.132Z,11.04
2018-01-03T14:21:33.243Z,10.91
2018-01-03T14:24:05.664Z,10.84
2018-01-03T14:26:36.857Z,10.68
2018-01-03T14:29:06.256Z,10.66
2018-01-03T14:31:36.073Z,10.68
2018-01-03T14:34:10.933Z,10.58
2018-01-03T14:36:40.057Z,10.62
2018-01-03T14:39:09.458Z,10.45
2018-01-03T14:41:38.579Z,10.39
2018-01-03T14:44:09.251Z,10.25
2018-01-03T14:46:38.400Z,10.10
2018-01-03T14:49:08.902Z,9.97
2018-01-03T14:51:39.055Z,9.97
2018-01-03T14:56:38.153Z,9.97
2018-01-03T14:59:07.593Z,9.95
2018-01-03T15:01:36.830Z,9.94
2018-01-03T15:04:10.964Z,9.92
2018-01-03T15:06:40.319Z,9.85
2018-01-03T15:09:09.774Z,9.85
2018-01-03T15:11:38.939Z,9.84
2018-01-03T15:14:09.870Z,9.90
2018-01-03T15:16:38.979Z,9.89
2018-01-03T15:19:08.568Z,9.91
2018-01-03T15:21:38.631Z,9.85
2018-01-03T15:24:09.221Z,9.78
2018-01-03T15:26:40.052Z,9.65
2018-01-03T15:29:09.413Z,9.59
2018-01-03T15:31:38.611Z,9.59
2018-01-03T15:34:08.553Z,9.54
2018-01-03T15:36:38.005Z,9.49
2018-01-03T15:39:07.165Z,9.50
2018-01-03T15:41:37.699Z,9.48
2018-01-03T15:44:07.958Z,9.49
2018-01-03T15:46:38.262Z,9.50
2018-01-03T15:49:07.439Z,9.49
2018-01-03T15:51:37.344Z,9.48
2018-01-03T15:54:07.655Z,9.48
2018-01-03T15:56:37.280Z,9.49
2018-01-03T15:59:06.472Z,9.52
2018-01-03T16:01:35.610Z,9.55
2018-01-03T16:04:06.356Z,9.54
2018-01-03T16:06:37.120Z,9.58
2018-01-03T16:10:35.822Z,9.55
2018-01-03T16:13:04.984Z,9.56
2018-01-03T16:15:34.480Z,9.56
2018-01-03T16:18:05.461Z,9.55
2018-01-03T16:21:05.619Z,9.55
2018-01-03T16:23:35.650Z,9.56
2018-01-03T16:26:07.712Z,9.58
2018-01-03T16:28:37.548Z,9.61
2018-01-03T16:31:06.990Z,9.65
2018-01-03T16:33:36.206Z,9.66
2018-01-03T16:36:08.394Z,9.68
2018-01-03T16:38:37.577Z,9.67
2018-01-03T16:41:07.024Z,9.70
2018-01-03T16:43:36.747Z,9.78
2018-01-03T16:46:13.431Z,9.81
2018-01-03T16:48:42.573Z,9.80
2018-01-03T16:51:11.855Z,9.81
2018-01-03T16:53:41.270Z,9.85
2018-01-03T16:56:11.246Z,9.88
2018-01-03T16:58:42.057Z,9.89
2018-01-03T17:01:11.271Z,9.89
2018-01-03T17:03:41.112Z,9.88
2018-01-03T17:06:10.355Z,9.90
2018-01-03T17:08:39.583Z,9.94
2018-01-03T17:11:09.032Z,9.98
2018-01-03T17:13:39.142Z,9.99
2018-01-03T17:16:12.365Z,10.04
2018-01-03T17:18:41.575Z,10.04
2018-01-03T17:21:16.300Z,9.97
2018-01-03T17:23:45.695Z,9.83
2018-01-03T17:26:15.436Z,9.58
2018-01-03T17:28:45.677Z,9.48
2018-01-03T17:31:14.764Z,9.28
2018-01-03T17:33:43.872Z,9.03
2018-01-03T17:36:14.717Z,8.90
2018-01-03T17:38:43.897Z,8.82
2018-01-03T17:41:13.276Z,8.82
2018-01-03T17:43:42.392Z,8.76
2018-01-03T17:46:12.296Z,8.78
2018-01-03T17:48:41.402Z,8.79
2018-01-03T17:51:11.169Z,8.80
2018-01-03T17:53:41.990Z,8.74
2018-01-03T17:56:17.401Z,8.72
2018-01-03T17:58:46.806Z,8.66
2018-01-03T18:01:16.009Z,8.57
2018-01-03T18:03:45.567Z,8.55
2018-01-03T18:06:16.732Z,8.56
2018-01-03T18:08:45.897Z,8.58
2018-01-03T18:11:15.895Z,8.56
2018-01-03T18:13:45.154Z,8.63
2018-01-03T18:16:15.259Z,8.67
2018-01-03T18:18:45.309Z,8.73
2018-01-03T18:21:14.747Z,8.72
2018-01-03T18:23:43.931Z,8.79
2018-01-03T18:26:14.289Z,8.83
2018-01-03T18:28:45.402Z,8.85
2018-01-03T18:31:14.490Z,8.91
2018-01-03T18:33:43.991Z,8.90
2018-01-03T18:36:15.379Z,8.94
2018-01-03T18:38:44.561Z,8.94
2018-01-03T18:41:13.687Z,8.94
2018-01-03T18:43:42.827Z,8.98
2018-01-03T18:46:12.697Z,9.02
2018-01-03T18:48:41.803Z,9.03
2018-01-03T18:51:11.205Z,9.04
2018-01-03T18:53:40.352Z,9.04
2018-01-03T18:56:16.456Z,9.01
2018-01-03T18:58:47.124Z,9.03
2018-01-03T19:01:16.194Z,9.00
2018-01-03T19:03:45.916Z,9.03
2018-01-03T19:06:17.571Z,9.03
2018-01-03T19:08:46.987Z,9.00
2018-01-03T19:11:16.158Z,9.03
2018-01-03T19:13:45.267Z,9.06
2018-01-03T19:16:16.961Z,9.06
2018-01-03T19:18:46.446Z,9.08
2018-01-03T19:21:15.568Z,9.03
2018-01-03T19:23:44.696Z,9.05
2018-01-03T19:26:14.255Z,9.04
2018-01-03T19:28:43.665Z,9.06
2018-01-03T19:31:12.935Z,9.09
2018-01-03T19:33:42.029Z,9.14
2018-01-03T19:36:17.143Z,9.11
2018-01-03T19:38:46.554Z,9.18
2018-01-03T19:41:15.710Z,9.21
2018-01-03T19:43:46.267Z,9.23
2018-01-03T19:46:20.381Z,9.24
2018-01-03T19:48:49.499Z,9.25
2018-01-03T19:51:19.620Z,9.30
2018-01-03T19:53:49.875Z,9.27
2018-01-03T19:56:21.762Z,9.28
2018-01-03T19:58:50.928Z,9.26
2018-01-03T20:01:20.360Z,9.27
2018-01-03T20:03:49.498Z,9.23
2018-01-03T20:06:20.718Z,9.22
2018-01-03T20:08:50.161Z,9.25
2018-01-03T20:11:19.576Z,9.26
2018-01-03T20:13:48.709Z,9.35
2018-01-03T20:16:20.700Z,9.50
2018-01-03T20:18:50.195Z,9.60
2018-01-03T20:21:19.357Z,9.67
2018-01-03T20:23:49.174Z,9.70
2018-01-03T20:26:20.750Z,9.72
2018-01-03T20:28:50.218Z,9.73
2018-01-03T20:31:19.361Z,9.74
2018-01-03T20:33:48.475Z,9.79
2018-01-03T20:36:18.521Z,9.76
2018-01-03T20:38:48.973Z,9.73
2018-01-03T20:41:18.069Z,9.68
2018-01-03T20:43:47.233Z,9.67
2018-01-03T20:46:17.593Z,9.65
2018-01-03T20:48:46.890Z,9.57
2018-01-03T20:51:16.031Z,9.58
2018-01-03T20:53:45.201Z,9.61
2018-01-03T20:56:16.211Z,9.57
2018-01-03T20:58:45.382Z,9.57
2018-01-03T21:01:14.730Z,9.64
2018-01-03T21:03:45.071Z,9.68
2018-01-03T21:06:15.831Z,9.70
2018-01-03T21:08:44.996Z,9.73
2018-01-03T21:11:14.433Z,9.70
2018-01-03T21:13:43.543Z,9.68
2018-01-03T21:16:18.380Z,9.67
2018-01-03T21:18:48.391Z,9.58
2018-01-03T21:21:18.032Z,9.48
2018-01-03T21:23:47.127Z,9.38
2018-01-03T21:26:19.781Z,9.40
2018-01-03T21:28:48.993Z,9.41
2018-01-03T21:31:18.437Z,9.39
2018-01-03T21:33:48.305Z,9.35
2018-01-03T21:36:20.324Z,9.31
2018-01-03T21:38:50.324Z,9.25
2018-01-03T21:41:19.777Z,9.22
2018-01-03T21:43:49.160Z,9.19
2018-01-03T21:46:20.176Z,9.17
2018-01-03T21:48:49.334Z,9.19
2018-01-03T21:51:19.851Z,9.22
2018-01-03T21:53:49.024Z,9.25
2018-01-03T21:56:19.503Z,9.25
2018-01-03T21:58:48.757Z,9.24
2018-01-03T22:01:18.166Z,9.26
2018-01-03T22:03:47.362Z,9.25
2018-01-03T22:06:17.225Z,9.27
2018-01-03T22:08:46.390Z,9.26
2018-01-03T22:11:16.106Z,9.28
2018-01-03T22:13:45.199Z,9.25
2018-01-03T22:16:15.989Z,9.22
2018-01-03T22:18:46.053Z,9.22
2018-01-03T22:21:15.163Z,9.18
2018-01-03T22:23:45.242Z,9.20
2018-01-03T22:26:16.938Z,9.16
2018-01-03T22:28:46.370Z,9.12
2018-01-03T22:31:15.675Z,9.08
2018-01-03T22:33:45.554Z,9.08
2018-01-03T22:36:18.083Z,9.04
2018-01-03T22:38:47.553Z,9.08
2018-01-03T22:41:16.729Z,9.07
2018-01-03T22:43:46.226Z,9.08
2018-01-03T22:46:15.403Z,9.08
2018-01-03T22:48:45.739Z,9.05
2018-01-03T22:51:15.948Z,9.03
2018-01-03T22:53:45.085Z,9.01
2018-01-03T22:56:17.673Z,8.98
2018-01-03T22:58:47.136Z,8.93
2018-01-03T23:01:16.461Z,8.94
2018-01-03T23:03:45.728Z,8.96
2018-01-03T23:06:17.773Z,8.93
2018-01-03T23:08:47.240Z,8.96
2018-01-03T23:11:16.365Z,8.93
2018-01-03T23:13:45.515Z,8.92
2018-01-03T23:16:15.039Z,8.95
2018-01-03T23:18:44.492Z,8.95
2018-01-03T23:21:13.689Z,8.97
2018-01-03T23:23:43.921Z,8.98
2018-01-03T23:26:15.156Z,8.93
2018-01-03T23:28:44.247Z,8.92
2018-01-03T23:31:13.390Z,8.94
2018-01-03T23:33:42.805Z,8.92
2018-01-03T23:36:13.344Z,8.87
2018-01-03T23:38:43.005Z,8.83
2018-01-03T23:41:12.423Z,8.87
2018-01-03T23:43:42.675Z,8.91
2018-01-03T23:46:15.167Z,8.95
2018-01-03T23:48:45.929Z,9.00
2018-01-03T23:51:15.361Z,9.02
2018-01-03T23:53:45.649Z,9.06
2018-01-03T23:56:16.795Z,9.06
2018-01-03T23:58:47.324Z,9.04
